sensor_id;sensor_type;location;lat;lon;timestamp;P1;durP1;ratioP1;P2;durP2;ratioP2
39654;SDS011;25336;59.944;11.010;2022-11-15T00:01:48;2.40;;;2.20;;
39654;SDS011;25336;59.944;11.010;2022-11-15T00:04:14;2.50;;;2.30;;
39654;SDS011;25336;59.944;11.010;2022-11-15T00:06:40;2.42;;;2.22;;
39654;SDS011;25336;59.944;11.010;2022-11-15T00:09:05;2.20;;;2.10;;
39654;SDS011;25336;59.944;11.010;2022-11-15T00:11:31;2.47;;;2.28;;
39654;SDS011;25336;59.944;11.010;2022-11-15T00:13:57;2.42;;;2.25;;
39654;SDS011;25336;59.944;11.010;2022-11-15T00:16:23;2.25;;;2.05;;
39654;SDS011;25336;59.944;11.010;2022-11-15T00:18:49;3.05;;;2.85;;
39654;SDS011;25336;59.944;11.010;2022-11-15T00:21:15;3.20;;;2.90;;
39654;SDS011;25336;59.944;11.010;2022-11-15T00:23:42;3.45;;;3.15;;
39654;SDS011;25336;59.944;11.010;2022-11-15T00:26:10;3.75;;;3.00;;
39654;SDS011;25336;59.944;11.010;2022-11-15T00:28:37;3.03;;;2.83;;
39654;SDS011;25336;59.944;11.010;2022-11-15T00:31:04;2.70;;;2.50;;
39654;SDS011;25336;59.944;11.010;2022-11-15T00:33:31;3.53;;;2.92;;
39654;SDS011;25336;59.944;11.010;2022-11-15T00:36:04;3.33;;;3.03;;
39654;SDS011;25336;59.944;11.010;2022-11-15T00:38:35;3.05;;;2.85;;
39654;SDS011;25336;59.944;11.010;2022-11-15T00:41:04;3.08;;;2.88;;
39654;SDS011;25336;59.944;11.010;2022-11-15T00:43:31;3.35;;;3.05;;
39654;SDS011;25336;59.944;11.010;2022-11-15T00:45:57;3.20;;;2.90;;
39654;SDS011;25336;59.944;11.010;2022-11-15T00:48:23;6.47;;;3.25;;
39654;SDS011;25336;59.944;11.010;2022-11-15T00:50:49;9.60;;;3.53;;
39654;SDS011;25336;59.944;11.010;2022-11-15T00:53:15;4.78;;;3.30;;
39654;SDS011;25336;59.944;11.010;2022-11-15T00:55:41;12.02;;;3.45;;
39654;SDS011;25336;59.944;11.010;2022-11-15T00:58:07;9.40;;;3.35;;
39654;SDS011;25336;59.944;11.010;2022-11-15T01:00:33;20.13;;;3.75;;
39654;SDS011;25336;59.944;11.010;2022-11-15T01:03:01;14.27;;;3.67;;
39654;SDS011;25336;59.944;11.010;2022-11-15T01:05:27;14.57;;;3.30;;
39654;SDS011;25336;59.944;11.010;2022-11-15T01:07:53;10.65;;;3.25;;
39654;SDS011;25336;59.944;11.010;2022-11-15T01:10:20;3.33;;;3.03;;
39654;SDS011;25336;59.944;11.010;2022-11-15T01:12:46;4.32;;;3.25;;
39654;SDS011;25336;59.944;11.010;2022-11-15T01:15:11;16.20;;;5.03;;
39654;SDS011;25336;59.944;11.010;2022-11-15T01:17:37;4.40;;;3.38;;
39654;SDS011;25336;59.944;11.010;2022-11-15T01:20:03;4.28;;;3.88;;
39654;SDS011;25336;59.944;11.010;2022-11-15T01:22:29;11.52;;;3.70;;
39654;SDS011;25336;59.944;11.010;2022-11-15T01:24:54;54.78;;;6.30;;
39654;SDS011;25336;59.944;11.010;2022-11-15T01:27:20;60.55;;;6.07;;
39654;SDS011;25336;59.944;11.010;2022-11-15T01:29:46;99.50;;;8.00;;
39654;SDS011;25336;59.944;11.010;2022-11-15T01:32:12;53.25;;;5.60;;
39654;SDS011;25336;59.944;11.010;2022-11-15T01:34:37;65.68;;;6.20;;
39654;SDS011;25336;59.944;11.010;2022-11-15T01:37:03;86.53;;;6.97;;
39654;SDS011;25336;59.944;11.010;2022-11-15T01:39:29;80.30;;;6.65;;
39654;SDS011;25336;59.944;11.010;2022-11-15T01:41:54;115.15;;;7.20;;
39654;SDS011;25336;59.944;11.010;2022-11-15T01:50:28;27.95;;;3.95;;
39654;SDS011;25336;59.944;11.010;2022-11-15T01:52:41;10.18;;;2.92;;
39654;SDS011;25336;59.944;11.010;2022-11-15T01:55:12;20.17;;;3.40;;
39654;SDS011;25336;59.944;11.010;2022-11-15T01:57:51;13.88;;;3.70;;
39654;SDS011;25336;59.944;11.010;2022-11-15T02:00:20;11.45;;;3.90;;
39654;SDS011;25336;59.944;11.010;2022-11-15T02:02:46;9.25;;;3.80;;
39654;SDS011;25336;59.944;11.010;2022-11-15T02:05:11;4.35;;;3.95;;
39654;SDS011;25336;59.944;11.010;2022-11-15T02:07:37;11.93;;;3.70;;
39654;SDS011;25336;59.944;11.010;2022-11-15T02:10:07;26.98;;;5.45;;
39654;SDS011;25336;59.944;11.010;2022-11-15T02:12:38;15.55;;;4.57;;
39654;SDS011;25336;59.944;11.010;2022-11-15T02:15:05;19.13;;;4.78;;
39654;SDS011;25336;59.944;11.010;2022-11-15T02:29:32;17.45;;;5.63;;
39654;SDS011;25336;59.944;11.010;2022-11-15T02:37:53;48.60;;;5.65;;
39654;SDS011;25336;59.944;11.010;2022-11-15T02:40:27;26.48;;;4.68;;
39654;SDS011;25336;59.944;11.010;2022-11-15T02:43:14;15.90;;;3.97;;
39654;SDS011;25336;59.944;11.010;2022-11-15T02:49:24;3.10;;;2.38;;
39654;SDS011;25336;59.944;11.010;2022-11-15T02:51:54;3.42;;;3.13;;
39654;SDS011;25336;59.944;11.010;2022-11-15T02:54:24;6.78;;;2.63;;
39654;SDS011;25336;59.944;11.010;2022-11-15T02:56:55;5.40;;;3.35;;
39654;SDS011;25336;59.944;11.010;2022-11-15T03:11:08;10.30;;;2.20;;
39654;SDS011;25336;59.944;11.010;2022-11-15T03:16:34;6.15;;;2.20;;
39654;SDS011;25336;59.944;11.010;2022-11-15T03:19:17;3.63;;;1.90;;
39654;SDS011;25336;59.944;11.010;2022-11-15T03:21:50;5.25;;;1.70;;
39654;SDS011;25336;59.944;11.010;2022-11-15T03:24:20;5.18;;;1.80;;
39654;SDS011;25336;59.944;11.010;2022-11-15T03:26:47;11.45;;;2.13;;
39654;SDS011;25336;59.944;11.010;2022-11-15T03:29:16;26.92;;;2.53;;
39654;SDS011;25336;59.944;11.010;2022-11-15T03:31:47;1.55;;;1.38;;
39654;SDS011;25336;59.944;11.010;2022-11-15T03:36:59;1.33;;;1.23;;
39654;SDS011;25336;59.944;11.010;2022-11-15T03:39:25;1.35;;;1.25;;
39654;SDS011;25336;59.944;11.010;2022-11-15T03:47:17;1.50;;;1.40;;
39654;SDS011;25336;59.944;11.010;2022-11-15T03:49:50;1.15;;;1.13;;
39654;SDS011;25336;59.944;11.010;2022-11-15T03:52:19;1.40;;;1.30;;
39654;SDS011;25336;59.944;11.010;2022-11-15T03:54:49;1.45;;;1.35;;
39654;SDS011;25336;59.944;11.010;2022-11-15T03:57:19;14.32;;;1.60;;
39654;SDS011;25336;59.944;11.010;2022-11-15T03:59:45;3.17;;;1.33;;
39654;SDS011;25336;59.944;11.010;2022-11-15T04:02:11;1.60;;;1.50;;
39654;SDS011;25336;59.944;11.010;2022-11-15T04:04:37;7.90;;;1.80;;
39654;SDS011;25336;59.944;11.010;2022-11-15T04:07:03;5.82;;;2.63;;
39654;SDS011;25336;59.944;11.010;2022-11-15T04:09:29;4.35;;;2.65;;
39654;SDS011;25336;59.944;11.010;2022-11-15T04:11:54;5.35;;;2.10;;
39654;SDS011;25336;59.944;11.010;2022-11-15T04:14:20;3.65;;;2.05;;
39654;SDS011;25336;59.944;11.010;2022-11-15T04:16:45;2.45;;;1.90;;
39654;SDS011;25336;59.944;11.010;2022-11-15T04:19:11;2.30;;;2.10;;
39654;SDS011;25336;59.944;11.010;2022-11-15T04:21:55;6.82;;;2.10;;
39654;SDS011;25336;59.944;11.010;2022-11-15T04:24:39;5.22;;;1.92;;
39654;SDS011;25336;59.944;11.010;2022-11-15T04:27:05;4.40;;;2.10;;
39654;SDS011;25336;59.944;11.010;2022-11-15T04:29:31;10.02;;;3.22;;
39654;SDS011;25336;59.944;11.010;2022-11-15T04:32:00;15.27;;;2.55;;
39654;SDS011;25336;59.944;11.010;2022-11-15T04:34:27;2.65;;;2.10;;
39654;SDS011;25336;59.944;11.010;2022-11-15T04:36:52;26.05;;;2.03;;
39654;SDS011;25336;59.944;11.010;2022-11-15T04:39:37;4.60;;;2.55;;
39654;SDS011;25336;59.944;11.010;2022-11-15T04:42:03;10.60;;;2.25;;
39654;SDS011;25336;59.944;11.010;2022-11-15T04:44:29;22.25;;;2.60;;
39654;SDS011;25336;59.944;11.010;2022-11-15T04:46:54;36.88;;;3.97;;
39654;SDS011;25336;59.944;11.010;2022-11-15T04:49:20;17.02;;;2.45;;
39654;SDS011;25336;59.944;11.010;2022-11-15T04:51:45;6.72;;;1.63;;
39654;SDS011;25336;59.944;11.010;2022-11-15T04:54:11;6.18;;;1.65;;
39654;SDS011;25336;59.944;11.010;2022-11-15T04:56:37;2.22;;;1.95;;
39654;SDS011;25336;59.944;11.010;2022-11-15T04:59:02;2.40;;;1.63;;
39654;SDS011;25336;59.944;11.010;2022-11-15T05:01:28;1.65;;;1.55;;
39654;SDS011;25336;59.944;11.010;2022-11-15T05:03:54;1.52;;;1.33;;
39654;SDS011;25336;59.944;11.010;2022-11-15T05:06:38;1.50;;;1.40;;
39654;SDS011;25336;59.944;11.010;2022-11-15T05:09:04;1.58;;;1.45;;
39654;SDS011;25336;59.944;11.010;2022-11-15T05:11:30;2.75;;;1.80;;
39654;SDS011;25336;59.944;11.010;2022-11-15T05:13:55;1.48;;;1.38;;
39654;SDS011;25336;59.944;11.010;2022-11-15T05:16:21;1.85;;;1.48;;
39654;SDS011;25336;59.944;11.010;2022-11-15T05:18:50;1.23;;;1.20;;
39654;SDS011;25336;59.944;11.010;2022-11-15T05:21:16;1.30;;;1.20;;
39654;SDS011;25336;59.944;11.010;2022-11-15T05:23:42;1.50;;;1.40;;
39654;SDS011;25336;59.944;11.010;2022-11-15T05:26:08;2.28;;;1.70;;
39654;SDS011;25336;59.944;11.010;2022-11-15T05:28:34;1.92;;;1.27;;
39654;SDS011;25336;59.944;11.010;2022-11-15T05:31:05;2.15;;;1.40;;
39654;SDS011;25336;59.944;11.010;2022-11-15T05:33:32;1.70;;;1.60;;
39654;SDS011;25336;59.944;11.010;2022-11-15T05:36:00;2.65;;;1.80;;
39654;SDS011;25336;59.944;11.010;2022-11-15T05:38:47;5.15;;;2.00;;
39654;SDS011;25336;59.944;11.010;2022-11-15T05:41:13;16.10;;;1.98;;
39654;SDS011;25336;59.944;11.010;2022-11-15T05:43:43;2.13;;;2.00;;
39654;SDS011;25336;59.944;11.010;2022-11-15T05:46:11;1.60;;;1.50;;
39654;SDS011;25336;59.944;11.010;2022-11-15T05:48:38;1.60;;;1.50;;
39654;SDS011;25336;59.944;11.010;2022-11-15T05:51:08;2.13;;;1.90;;
39654;SDS011;25336;59.944;11.010;2022-11-15T05:53:34;1.75;;;1.65;;
39654;SDS011;25336;59.944;11.010;2022-11-15T05:56:02;2.72;;;2.00;;
39654;SDS011;25336;59.944;11.010;2022-11-15T05:58:30;2.70;;;2.00;;
39654;SDS011;25336;59.944;11.010;2022-11-15T06:00:57;3.47;;;1.83;;
39654;SDS011;25336;59.944;11.010;2022-11-15T06:03:22;1.80;;;1.70;;
39654;SDS011;25336;59.944;11.010;2022-11-15T06:05:48;2.22;;;2.13;;
39654;SDS011;25336;59.944;11.010;2022-11-15T06:08:14;1.98;;;1.88;;
39654;SDS011;25336;59.944;11.010;2022-11-15T06:10:39;9.60;;;3.15;;
39654;SDS011;25336;59.944;11.010;2022-11-15T06:13:05;7.47;;;2.38;;
39654;SDS011;25336;59.944;11.010;2022-11-15T06:15:34;13.25;;;7.50;;
39654;SDS011;25336;59.944;11.010;2022-11-15T06:18:00;10.95;;;3.97;;
39654;SDS011;25336;59.944;11.010;2022-11-15T06:20:26;5.40;;;2.92;;
39654;SDS011;25336;59.944;11.010;2022-11-15T06:22:57;4.05;;;2.28;;
39654;SDS011;25336;59.944;11.010;2022-11-15T06:25:24;2.20;;;2.00;;
39654;SDS011;25336;59.944;11.010;2022-11-15T06:27:53;2.25;;;2.00;;
39654;SDS011;25336;59.944;11.010;2022-11-15T06:30:20;8.10;;;3.35;;
39654;SDS011;25336;59.944;11.010;2022-11-15T06:32:46;3.90;;;3.50;;
39654;SDS011;25336;59.944;11.010;2022-11-15T06:35:12;3.45;;;3.15;;
39654;SDS011;25336;59.944;11.010;2022-11-15T06:37:39;3.10;;;2.55;;
39654;SDS011;25336;59.944;11.010;2022-11-15T06:40:05;3.55;;;3.30;;
39654;SDS011;25336;59.944;11.010;2022-11-15T06:42:32;2.63;;;2.42;;
39654;SDS011;25336;59.944;11.010;2022-11-15T06:44:57;3.75;;;2.90;;
39654;SDS011;25336;59.944;11.010;2022-11-15T06:47:23;4.03;;;2.65;;
39654;SDS011;25336;59.944;11.010;2022-11-15T06:49:48;4.07;;;2.63;;
39654;SDS011;25336;59.944;11.010;2022-11-15T06:52:14;4.10;;;3.60;;
39654;SDS011;25336;59.944;11.010;2022-11-15T06:54:40;4.10;;;2.55;;
39654;SDS011;25336;59.944;11.010;2022-11-15T06:57:05;2.65;;;2.45;;
39654;SDS011;25336;59.944;11.010;2022-11-15T06:59:31;3.15;;;2.85;;
39654;SDS011;25336;59.944;11.010;2022-11-15T07:01:56;3.10;;;2.80;;
39654;SDS011;25336;59.944;11.010;2022-11-15T07:04:22;3.35;;;2.75;;
39654;SDS011;25336;59.944;11.010;2022-11-15T07:06:48;3.22;;;2.90;;
39654;SDS011;25336;59.944;11.010;2022-11-15T07:09:13;7.63;;;4.28;;
39654;SDS011;25336;59.944;11.010;2022-11-15T07:11:39;2.53;;;2.33;;
39654;SDS011;25336;59.944;11.010;2022-11-15T07:14:05;2.50;;;2.25;;
39654;SDS011;25336;59.944;11.010;2022-11-15T07:16:31;2.65;;;2.33;;
39654;SDS011;25336;59.944;11.010;2022-11-15T07:18:56;2.33;;;2.13;;
39654;SDS011;25336;59.944;11.010;2022-11-15T07:21:22;3.10;;;1.92;;
39654;SDS011;25336;59.944;11.010;2022-11-15T07:23:48;2.58;;;2.38;;
39654;SDS011;25336;59.944;11.010;2022-11-15T07:26:13;6.53;;;2.47;;
39654;SDS011;25336;59.944;11.010;2022-11-15T07:28:39;3.75;;;2.13;;
39654;SDS011;25336;59.944;11.010;2022-11-15T07:31:06;2.45;;;2.25;;
39654;SDS011;25336;59.944;11.010;2022-11-15T07:33:33;4.70;;;2.78;;
39654;SDS011;25336;59.944;11.010;2022-11-15T07:35:59;3.72;;;2.85;;
39654;SDS011;25336;59.944;11.010;2022-11-15T07:38:29;2.15;;;1.90;;
39654;SDS011;25336;59.944;11.010;2022-11-15T07:40:56;2.30;;;2.10;;
39654;SDS011;25336;59.944;11.010;2022-11-15T07:43:22;2.30;;;2.10;;
39654;SDS011;25336;59.944;11.010;2022-11-15T07:45:48;4.10;;;2.30;;
39654;SDS011;25336;59.944;11.010;2022-11-15T07:48:13;3.13;;;2.25;;
39654;SDS011;25336;59.944;11.010;2022-11-15T07:50:42;3.65;;;2.30;;
39654;SDS011;25336;59.944;11.010;2022-11-15T07:53:08;4.72;;;2.20;;
39654;SDS011;25336;59.944;11.010;2022-11-15T07:55:35;8.05;;;2.30;;
39654;SDS011;25336;59.944;11.010;2022-11-15T07:58:02;3.40;;;2.47;;
39654;SDS011;25336;59.944;11.010;2022-11-15T08:00:29;2.75;;;2.50;;
39654;SDS011;25336;59.944;11.010;2022-11-15T08:03:28;2.38;;;2.20;;
39654;SDS011;25336;59.944;11.010;2022-11-15T08:05:49;4.15;;;2.00;;
39654;SDS011;25336;59.944;11.010;2022-11-15T08:08:16;3.53;;;2.38;;
39654;SDS011;25336;59.944;11.010;2022-11-15T08:10:41;3.28;;;2.60;;
39654;SDS011;25336;59.944;11.010;2022-11-15T08:13:08;2.83;;;2.22;;
39654;SDS011;25336;59.944;11.010;2022-11-15T08:15:36;3.53;;;2.70;;
39654;SDS011;25336;59.944;11.010;2022-11-15T08:18:03;4.40;;;2.78;;
39654;SDS011;25336;59.944;11.010;2022-11-15T08:20:31;4.20;;;3.00;;
39654;SDS011;25336;59.944;11.010;2022-11-15T08:22:57;4.20;;;3.42;;
39654;SDS011;25336;59.944;11.010;2022-11-15T08:25:24;5.28;;;2.40;;
39654;SDS011;25336;59.944;11.010;2022-11-15T08:27:55;3.95;;;2.20;;
39654;SDS011;25336;59.944;11.010;2022-11-15T08:30:24;2.70;;;2.50;;
39654;SDS011;25336;59.944;11.010;2022-11-15T08:32:50;3.97;;;2.33;;
39654;SDS011;25336;59.944;11.010;2022-11-15T08:35:17;3.28;;;2.95;;
39654;SDS011;25336;59.944;11.010;2022-11-15T08:37:43;5.15;;;2.60;;
39654;SDS011;25336;59.944;11.010;2022-11-15T08:40:09;3.03;;;2.15;;
39654;SDS011;25336;59.944;11.010;2022-11-15T08:42:35;1.98;;;1.75;;
39654;SDS011;25336;59.944;11.010;2022-11-15T08:45:01;2.38;;;1.83;;
39654;SDS011;25336;59.944;11.010;2022-11-15T08:47:27;4.40;;;1.80;;
39654;SDS011;25336;59.944;11.010;2022-11-15T08:49:52;7.70;;;2.00;;
39654;SDS011;25336;59.944;11.010;2022-11-15T08:52:18;2.25;;;2.03;;
39654;SDS011;25336;59.944;11.010;2022-11-15T08:54:43;5.45;;;2.75;;
39654;SDS011;25336;59.944;11.010;2022-11-15T08:57:09;6.22;;;3.10;;
39654;SDS011;25336;59.944;11.010;2022-11-15T08:59:35;4.78;;;2.35;;
39654;SDS011;25336;59.944;11.010;2022-11-15T09:02:01;2.78;;;2.35;;
39654;SDS011;25336;59.944;11.010;2022-11-15T09:04:28;1.95;;;1.80;;
39654;SDS011;25336;59.944;11.010;2022-11-15T09:06:53;3.88;;;2.10;;
39654;SDS011;25336;59.944;11.010;2022-11-15T09:09:19;1.70;;;1.58;;
39654;SDS011;25336;59.944;11.010;2022-11-15T09:11:45;2.33;;;1.80;;
39654;SDS011;25336;59.944;11.010;2022-11-15T09:14:11;3.45;;;1.67;;
39654;SDS011;25336;59.944;11.010;2022-11-15T09:16:37;1.83;;;1.65;;
39654;SDS011;25336;59.944;11.010;2022-11-15T09:19:03;1.95;;;1.42;;
39654;SDS011;25336;59.944;11.010;2022-11-15T09:21:29;1.60;;;1.35;;
39654;SDS011;25336;59.944;11.010;2022-11-15T09:23:55;1.42;;;1.30;;
39654;SDS011;25336;59.944;11.010;2022-11-15T09:26:21;4.03;;;1.50;;
39654;SDS011;25336;59.944;11.010;2022-11-15T09:28:47;1.92;;;1.08;;
39654;SDS011;25336;59.944;11.010;2022-11-15T09:31:13;3.33;;;1.52;;
39654;SDS011;25336;59.944;11.010;2022-11-15T09:33:38;1.58;;;1.48;;
39654;SDS011;25336;59.944;11.010;2022-11-15T09:36:05;2.22;;;1.45;;
39654;SDS011;25336;59.944;11.010;2022-11-15T09:38:32;1.33;;;1.23;;
39654;SDS011;25336;59.944;11.010;2022-11-15T09:46:55;3.70;;;3.35;;
39654;SDS011;25336;59.944;11.010;2022-11-15T09:49:43;3.58;;;2.53;;
39654;SDS011;25336;59.944;11.010;2022-11-15T09:52:11;3.42;;;3.13;;
39654;SDS011;25336;59.944;11.010;2022-11-15T09:54:38;3.33;;;2.72;;
39654;SDS011;25336;59.944;11.010;2022-11-15T09:57:15;4.60;;;2.58;;
39654;SDS011;25336;59.944;11.010;2022-11-15T10:05:27;3.38;;;2.53;;
39654;SDS011;25336;59.944;11.010;2022-11-15T10:08:11;2.13;;;1.67;;
39654;SDS011;25336;59.944;11.010;2022-11-15T10:10:41;2.63;;;2.30;;
39654;SDS011;25336;59.944;11.010;2022-11-15T10:13:24;1.65;;;1.55;;
39654;SDS011;25336;59.944;11.010;2022-11-15T10:15:54;1.95;;;1.15;;
39654;SDS011;25336;59.944;11.010;2022-11-15T10:18:41;2.97;;;1.65;;
39654;SDS011;25336;59.944;11.010;2022-11-15T10:21:17;1.90;;;1.17;;
39654;SDS011;25336;59.944;11.010;2022-11-15T10:23:46;1.98;;;1.05;;
39654;SDS011;25336;59.944;11.010;2022-11-15T10:26:13;1.33;;;1.08;;
39654;SDS011;25336;59.944;11.010;2022-11-15T10:28:41;1.30;;;1.10;;
39654;SDS011;25336;59.944;11.010;2022-11-15T10:33:50;2.05;;;1.75;;
39654;SDS011;25336;59.944;11.010;2022-11-15T10:36:20;1.88;;;1.17;;
39654;SDS011;25336;59.944;11.010;2022-11-15T10:41:17;1.80;;;1.20;;
39654;SDS011;25336;59.944;11.010;2022-11-15T10:46:34;1.98;;;1.30;;
39654;SDS011;25336;59.944;11.010;2022-11-15T10:49:17;2.72;;;0.90;;
39654;SDS011;25336;59.944;11.010;2022-11-15T10:56:53;0.88;;;0.88;;
39654;SDS011;25336;59.944;11.010;2022-11-15T10:59:30;1.08;;;0.80;;
39654;SDS011;25336;59.944;11.010;2022-11-15T11:02:00;1.02;;;0.90;;
39654;SDS011;25336;59.944;11.010;2022-11-15T11:04:25;1.38;;;1.10;;
39654;SDS011;25336;59.944;11.010;2022-11-15T11:07:00;0.85;;;0.82;;
39654;SDS011;25336;59.944;11.010;2022-11-15T11:11:57;1.50;;;1.20;;
39654;SDS011;25336;59.944;11.010;2022-11-15T11:14:24;2.05;;;1.02;;
39654;SDS011;25336;59.944;11.010;2022-11-15T11:17:16;2.88;;;0.95;;
39654;SDS011;25336;59.944;11.010;2022-11-15T11:39:23;1.20;;;1.10;;
39654;SDS011;25336;59.944;11.010;2022-11-15T11:41:58;1.88;;;1.00;;
39654;SDS011;25336;59.944;11.010;2022-11-15T11:44:54;1.20;;;0.98;;
39654;SDS011;25336;59.944;11.010;2022-11-15T11:47:38;1.10;;;1.00;;
39654;SDS011;25336;59.944;11.010;2022-11-15T11:50:13;4.93;;;2.05;;
39654;SDS011;25336;59.944;11.010;2022-11-15T11:52:43;1.90;;;1.17;;
39654;SDS011;25336;59.944;11.010;2022-11-15T11:55:21;2.10;;;1.23;;
39654;SDS011;25336;59.944;11.010;2022-11-15T12:00:59;2.17;;;1.20;;
39654;SDS011;25336;59.944;11.010;2022-11-15T12:03:38;1.15;;;1.05;;
39654;SDS011;25336;59.944;11.010;2022-11-15T12:06:20;2.17;;;1.00;;
39654;SDS011;25336;59.944;11.010;2022-11-15T12:08:58;2.45;;;0.80;;
39654;SDS011;25336;59.944;11.010;2022-11-15T12:14:30;3.28;;;1.23;;
39654;SDS011;25336;59.944;11.010;2022-11-15T12:17:08;1.45;;;1.10;;
39654;SDS011;25336;59.944;11.010;2022-11-15T12:19:35;3.03;;;1.92;;
39654;SDS011;25336;59.944;11.010;2022-11-15T12:22:04;1.08;;;1.00;;
39654;SDS011;25336;59.944;11.010;2022-11-15T12:24:39;2.15;;;1.10;;
39654;SDS011;25336;59.944;11.010;2022-11-15T12:27:14;1.30;;;0.85;;
39654;SDS011;25336;59.944;11.010;2022-11-15T12:29:46;0.70;;;0.70;;
39654;SDS011;25336;59.944;11.010;2022-11-15T12:32:36;1.27;;;1.17;;
39654;SDS011;25336;59.944;11.010;2022-11-15T12:35:02;4.18;;;1.90;;
39654;SDS011;25336;59.944;11.010;2022-11-15T12:45:56;2.47;;;1.55;;
39654;SDS011;25336;59.944;11.010;2022-11-15T12:51:00;2.38;;;1.40;;
39654;SDS011;25336;59.944;11.010;2022-11-15T12:58:47;5.03;;;1.80;;
39654;SDS011;25336;59.944;11.010;2022-11-15T13:22:27;7.03;;;3.20;;
39654;SDS011;25336;59.944;11.010;2022-11-15T13:30:48;6.90;;;3.17;;
39654;SDS011;25336;59.944;11.010;2022-11-15T13:33:20;7.88;;;4.82;;
39654;SDS011;25336;59.944;11.010;2022-11-15T13:35:46;3.00;;;2.00;;
39654;SDS011;25336;59.944;11.010;2022-11-15T13:38:19;5.10;;;2.90;;
39654;SDS011;25336;59.944;11.010;2022-11-15T13:40:51;6.22;;;4.07;;
39654;SDS011;25336;59.944;11.010;2022-11-15T13:46:03;9.10;;;3.70;;
39654;SDS011;25336;59.944;11.010;2022-11-15T13:48:29;4.05;;;2.13;;
39654;SDS011;25336;59.944;11.010;2022-11-15T13:50:55;7.45;;;3.50;;
39654;SDS011;25336;59.944;11.010;2022-11-15T13:53:22;6.22;;;3.15;;
39654;SDS011;25336;59.944;11.010;2022-11-15T13:55:48;6.68;;;4.10;;
39654;SDS011;25336;59.944;11.010;2022-11-15T13:58:13;6.18;;;3.40;;
39654;SDS011;25336;59.944;11.010;2022-11-15T14:00:40;4.18;;;1.70;;
39654;SDS011;25336;59.944;11.010;2022-11-15T14:03:27;1.50;;;1.30;;
39654;SDS011;25336;59.944;11.010;2022-11-15T14:06:09;4.47;;;1.80;;
39654;SDS011;25336;59.944;11.010;2022-11-15T14:08:40;5.35;;;2.15;;
39654;SDS011;25336;59.944;11.010;2022-11-15T14:14:04;1.60;;;1.50;;
39654;SDS011;25336;59.944;11.010;2022-11-15T14:16:36;3.75;;;1.77;;
39654;SDS011;25336;59.944;11.010;2022-11-15T14:19:04;1.73;;;1.30;;
39654;SDS011;25336;59.944;11.010;2022-11-15T14:21:31;8.38;;;1.92;;
39654;SDS011;25336;59.944;11.010;2022-11-15T14:24:17;1.35;;;1.25;;
39654;SDS011;25336;59.944;11.010;2022-11-15T14:26:44;4.25;;;1.33;;
39654;SDS011;25336;59.944;11.010;2022-11-15T14:29:26;5.28;;;2.22;;
39654;SDS011;25336;59.944;11.010;2022-11-15T14:34:41;2.47;;;1.67;;
39654;SDS011;25336;59.944;11.010;2022-11-15T14:37:19;2.90;;;2.50;;
39654;SDS011;25336;59.944;11.010;2022-11-15T14:39:48;6.82;;;3.80;;
39654;SDS011;25336;59.944;11.010;2022-11-15T14:42:14;1.85;;;1.73;;
39654;SDS011;25336;59.944;11.010;2022-11-15T14:44:40;1.83;;;1.35;;
39654;SDS011;25336;59.944;11.010;2022-11-15T14:47:06;2.03;;;1.50;;
39654;SDS011;25336;59.944;11.010;2022-11-15T14:49:31;3.75;;;2.40;;
39654;SDS011;25336;59.944;11.010;2022-11-15T14:51:57;2.10;;;1.40;;
39654;SDS011;25336;59.944;11.010;2022-11-15T14:54:23;2.40;;;1.30;;
39654;SDS011;25336;59.944;11.010;2022-11-15T14:56:48;3.05;;;1.17;;
39654;SDS011;25336;59.944;11.010;2022-11-15T14:59:14;3.00;;;1.20;;
39654;SDS011;25336;59.944;11.010;2022-11-15T15:01:39;0.98;;;0.80;;
39654;SDS011;25336;59.944;11.010;2022-11-15T15:04:05;1.27;;;1.10;;
39654;SDS011;25336;59.944;11.010;2022-11-15T15:06:31;0.80;;;0.70;;
39654;SDS011;25336;59.944;11.010;2022-11-15T15:08:56;1.60;;;0.95;;
39654;SDS011;25336;59.944;11.010;2022-11-15T15:11:25;1.00;;;0.80;;
39654;SDS011;25336;59.944;11.010;2022-11-15T15:13:53;1.33;;;1.08;;
39654;SDS011;25336;59.944;11.010;2022-11-15T15:16:21;3.50;;;1.00;;
39654;SDS011;25336;59.944;11.010;2022-11-15T15:18:48;2.55;;;1.08;;
39654;SDS011;25336;59.944;11.010;2022-11-15T15:23:46;2.20;;;1.30;;
39654;SDS011;25336;59.944;11.010;2022-11-15T15:26:12;5.65;;;1.08;;
39654;SDS011;25336;59.944;11.010;2022-11-15T15:28:38;2.67;;;1.40;;
39654;SDS011;25336;59.944;11.010;2022-11-15T15:31:04;1.40;;;1.30;;
39654;SDS011;25336;59.944;11.010;2022-11-15T15:33:30;1.48;;;1.30;;
39654;SDS011;25336;59.944;11.010;2022-11-15T15:35:56;3.92;;;1.98;;
39654;SDS011;25336;59.944;11.010;2022-11-15T15:38:22;4.55;;;2.17;;
39654;SDS011;25336;59.944;11.010;2022-11-15T15:40:47;2.75;;;1.90;;
39654;SDS011;25336;59.944;11.010;2022-11-15T15:43:13;1.70;;;1.55;;
39654;SDS011;25336;59.944;11.010;2022-11-15T15:45:39;4.03;;;1.70;;
39654;SDS011;25336;59.944;11.010;2022-11-15T15:48:10;4.13;;;2.50;;
39654;SDS011;25336;59.944;11.010;2022-11-15T15:50:39;3.42;;;2.65;;
39654;SDS011;25336;59.944;11.010;2022-11-15T15:53:08;4.78;;;3.15;;
39654;SDS011;25336;59.944;11.010;2022-11-15T15:55:35;3.30;;;2.38;;
39654;SDS011;25336;59.944;11.010;2022-11-15T15:58:02;3.17;;;1.45;;
39654;SDS011;25336;59.944;11.010;2022-11-15T16:00:28;3.00;;;1.88;;
39654;SDS011;25336;59.944;11.010;2022-11-15T16:02:54;4.88;;;1.90;;
39654;SDS011;25336;59.944;11.010;2022-11-15T16:05:20;3.47;;;1.65;;
39654;SDS011;25336;59.944;11.010;2022-11-15T16:07:46;2.92;;;1.80;;
39654;SDS011;25336;59.944;11.010;2022-11-15T16:12:44;2.40;;;1.73;;
39654;SDS011;25336;59.944;11.010;2022-11-15T16:15:10;1.60;;;1.38;;
39654;SDS011;25336;59.944;11.010;2022-11-15T16:17:44;1.65;;;1.30;;
39654;SDS011;25336;59.944;11.010;2022-11-15T16:23:05;1.77;;;1.40;;
39654;SDS011;25336;59.944;11.010;2022-11-15T16:25:54;1.60;;;1.50;;
39654;SDS011;25336;59.944;11.010;2022-11-15T16:28:30;1.85;;;1.40;;
39654;SDS011;25336;59.944;11.010;2022-11-15T16:33:35;1.88;;;1.67;;
39654;SDS011;25336;59.944;11.010;2022-11-15T16:36:02;1.55;;;1.40;;
39654;SDS011;25336;59.944;11.010;2022-11-15T16:38:29;3.10;;;1.77;;
39654;SDS011;25336;59.944;11.010;2022-11-15T16:40:55;2.95;;;1.77;;
39654;SDS011;25336;59.944;11.010;2022-11-15T16:43:21;2.15;;;1.63;;
39654;SDS011;25336;59.944;11.010;2022-11-15T16:45:46;2.53;;;1.50;;
39654;SDS011;25336;59.944;11.010;2022-11-15T16:48:19;1.48;;;1.38;;
39654;SDS011;25336;59.944;11.010;2022-11-15T16:50:46;3.88;;;1.75;;
39654;SDS011;25336;59.944;11.010;2022-11-15T16:53:11;2.90;;;2.22;;
39654;SDS011;25336;59.944;11.010;2022-11-15T16:55:37;3.65;;;2.35;;
39654;SDS011;25336;59.944;11.010;2022-11-15T16:58:03;3.88;;;2.47;;
39654;SDS011;25336;59.944;11.010;2022-11-15T17:00:28;2.33;;;2.13;;
39654;SDS011;25336;59.944;11.010;2022-11-15T17:02:54;5.20;;;2.63;;
39654;SDS011;25336;59.944;11.010;2022-11-15T17:05:21;3.13;;;1.83;;
39654;SDS011;25336;59.944;11.010;2022-11-15T17:07:48;2.80;;;1.80;;
39654;SDS011;25336;59.944;11.010;2022-11-15T17:10:16;8.20;;;1.70;;
39654;SDS011;25336;59.944;11.010;2022-11-15T17:12:42;3.90;;;1.67;;
39654;SDS011;25336;59.944;11.010;2022-11-15T17:15:09;4.90;;;2.75;;
39654;SDS011;25336;59.944;11.010;2022-11-15T17:17:35;3.08;;;2.42;;
39654;SDS011;25336;59.944;11.010;2022-11-15T17:20:01;3.20;;;2.03;;
39654;SDS011;25336;59.944;11.010;2022-11-15T17:22:34;5.65;;;2.83;;
39654;SDS011;25336;59.944;11.010;2022-11-15T17:25:02;5.65;;;2.30;;
39654;SDS011;25336;59.944;11.010;2022-11-15T17:27:29;4.50;;;2.85;;